createdAt,value
2023-02-01T00:00:11.082Z,53.00
2023-02-01T00:03:14.080Z,52.90
2023-02-01T00:06:15.832Z,51.00
2023-02-01T00:09:17.469Z,50.20
2023-02-01T00:12:19.064Z,46.90
2023-02-01T00:15:21.757Z,48.00
2023-02-01T00:18:23.419Z,48.00
2023-02-01T00:21:25.565Z,51.80
2023-02-01T00:24:27.342Z,45.70
2023-02-01T00:27:29.206Z,49.90
2023-02-01T00:30:30.961Z,46.90
2023-02-01T00:33:33.845Z,46.30
2023-02-01T00:36:36.018Z,45.30
2023-02-01T00:39:37.726Z,47.70
2023-02-01T00:42:39.384Z,42.80
2023-02-01T00:45:41.606Z,43.40
2023-02-01T00:48:43.757Z,46.70
2023-02-01T00:51:45.458Z,50.90
2023-02-01T00:54:47.299Z,50.20
2023-02-01T00:57:48.913Z,51.00
2023-02-01T01:01:01.991Z,45.00
2023-02-01T01:04:04.597Z,46.30
2023-02-01T01:07:06.329Z,53.10
2023-02-01T01:10:08.707Z,45.60
2023-02-01T01:13:10.430Z,49.50
2023-02-01T01:16:13.449Z,49.20
2023-02-01T01:19:15.508Z,52.10
2023-02-01T01:22:17.193Z,55.50
2023-02-01T01:25:19.051Z,56.50
2023-02-01T01:28:20.915Z,52.50
2023-02-01T01:31:22.807Z,50.40
2023-02-01T01:34:24.510Z,50.00
2023-02-01T01:37:26.184Z,47.80
2023-02-01T01:40:29.596Z,40.10
2023-02-01T01:43:56.758Z,49.30
2023-02-01T01:47:00.176Z,44.20
2023-02-01T01:50:04.593Z,48.70
2023-02-01T01:53:08.905Z,51.10
2023-02-01T01:56:11.250Z,52.10
2023-02-01T01:59:13.964Z,50.80
2023-02-01T02:02:16.734Z,36.60
2023-02-01T02:05:19.125Z,41.10
2023-02-01T02:08:21.810Z,43.70
2023-02-01T02:11:23.583Z,48.90
2023-02-01T02:14:26.151Z,55.00
2023-02-01T02:17:52.490Z,46.40
2023-02-01T02:21:12.887Z,48.10
2023-02-01T02:24:23.492Z,43.50
2023-02-01T02:27:31.159Z,40.50
2023-02-01T02:30:42.477Z,42.40
2023-02-01T02:33:57.119Z,46.90
2023-02-01T02:37:16.496Z,40.70
2023-02-01T02:40:23.117Z,45.70
2023-02-01T02:44:03.532Z,44.60
2023-02-01T02:47:28.663Z,50.20
2023-02-01T02:51:04.395Z,54.00
2023-02-01T02:54:35.655Z,51.30
2023-02-01T02:57:58.641Z,47.90
2023-02-01T03:01:19.347Z,56.70
2023-02-01T03:04:22.206Z,54.90
2023-02-01T03:07:46.742Z,43.00
2023-02-01T03:10:53.270Z,45.50
2023-02-01T03:13:58.499Z,44.30
2023-02-01T03:17:07.753Z,49.50
2023-02-01T03:20:11.921Z,51.30
2023-02-01T03:23:16.499Z,49.70
2023-02-01T03:26:20.053Z,47.40
2023-02-01T03:29:48.188Z,53.90
2023-02-01T03:33:01.384Z,51.70
2023-02-01T03:36:25.602Z,45.90
2023-02-01T03:39:40.062Z,49.80
2023-02-01T03:42:45.307Z,47.70
2023-02-01T03:45:51.391Z,45.70
2023-02-01T03:48:54.051Z,50.30
2023-02-01T03:51:58.735Z,51.60
2023-02-01T03:55:01.010Z,47.10
2023-02-01T03:58:07.912Z,59.30
2023-02-01T04:01:09.857Z,50.10
2023-02-01T04:04:20.943Z,56.20
2023-02-01T04:07:25.277Z,50.70
2023-02-01T04:10:27.757Z,51.90
2023-02-01T04:13:29.445Z,43.30
2023-02-01T04:16:34.419Z,47.20
2023-02-01T04:19:36.195Z,46.20
2023-02-01T04:22:38.167Z,49.90
2023-02-01T04:25:39.826Z,52.30
2023-02-01T04:28:41.473Z,50.80
2023-02-01T04:31:43.245Z,50.00
2023-02-01T04:34:45.056Z,50.90
2023-02-01T04:37:46.925Z,52.90
2023-02-01T04:40:49.703Z,51.30
2023-02-01T04:43:53.208Z,55.30
2023-02-01T04:46:54.852Z,48.20
2023-02-01T04:49:56.631Z,37.80
2023-02-01T04:52:58.302Z,44.60
2023-02-01T04:55:59.954Z,50.10
2023-02-01T04:59:03.485Z,45.30
2023-02-01T05:02:05.161Z,50.80
2023-02-01T05:05:07.192Z,52.60
2023-02-01T05:08:08.948Z,46.50
2023-02-01T05:11:33.444Z,46.00
2023-02-01T05:14:35.065Z,45.20
2023-02-01T05:17:36.756Z,49.20
2023-02-01T05:20:38.425Z,41.70
2023-02-01T05:23:58.573Z,43.60
2023-02-01T05:27:00.249Z,40.50
2023-02-01T05:30:03.275Z,44.80
2023-02-01T05:33:05.224Z,44.60
2023-02-01T05:36:07.091Z,48.40
2023-02-01T05:39:08.714Z,43.10
2023-02-01T05:42:10.713Z,49.70
2023-02-01T05:45:12.631Z,48.40
2023-02-01T05:48:14.452Z,41.20
2023-02-01T05:51:16.244Z,39.60
2023-02-01T05:54:17.909Z,53.30
2023-02-01T05:57:19.586Z,50.20
2023-02-01T06:00:22.470Z,46.20
2023-02-01T06:03:24.232Z,48.20
2023-02-01T06:06:25.915Z,47.90
2023-02-01T06:09:29.436Z,37.80
2023-02-01T06:12:31.406Z,41.10
2023-02-01T06:15:34.577Z,43.00
2023-02-01T06:18:36.593Z,48.40
2023-02-01T06:21:38.347Z,48.10
2023-02-01T06:24:40.700Z,86.20
2023-02-01T06:27:42.368Z,69.00
2023-02-01T06:30:47.150Z,50.80
2023-02-01T06:33:50.005Z,48.70
2023-02-01T06:36:51.870Z,50.50
2023-02-01T06:39:53.513Z,52.00
2023-02-01T06:42:55.276Z,47.20
2023-02-01T06:46:02.342Z,42.30
2023-02-01T06:49:03.915Z,42.30
2023-02-01T06:52:05.783Z,48.00
2023-02-01T06:55:08.067Z,43.70
2023-02-01T06:58:09.817Z,38.00
2023-02-01T07:01:12.391Z,44.20
2023-02-01T07:04:14.125Z,47.60
2023-02-01T07:07:16.430Z,52.00
2023-02-01T07:10:18.300Z,49.70
2023-02-01T07:13:20.262Z,54.60
2023-02-01T07:16:22.269Z,53.80
2023-02-01T07:19:24.095Z,51.40
2023-02-01T07:22:25.854Z,40.00
2023-02-01T07:25:27.513Z,52.70
2023-02-01T07:28:30.781Z,47.70
2023-02-01T07:31:32.429Z,46.60
2023-02-01T07:34:35.013Z,46.70
2023-02-01T07:37:36.825Z,44.10
2023-02-01T07:40:38.583Z,45.10
2023-02-01T07:43:40.269Z,39.30
2023-02-01T07:46:41.901Z,48.10
2023-02-01T07:49:43.553Z,55.80
2023-02-01T07:52:45.219Z,48.70
2023-02-01T07:55:47.100Z,48.50
2023-02-01T07:58:50.418Z,54.00
2023-02-01T08:01:52.157Z,53.80
2023-02-01T08:04:54.489Z,50.60
2023-02-01T08:07:56.189Z,57.10
2023-02-01T08:11:00.116Z,55.10
2023-02-01T08:14:01.845Z,59.10
2023-02-01T08:17:03.484Z,61.60
2023-02-01T08:20:05.812Z,55.80
2023-02-01T08:23:09.937Z,62.60
2023-02-01T08:26:13.602Z,50.90
2023-02-01T08:29:15.357Z,51.10
2023-02-01T08:32:17.030Z,58.50
2023-02-01T08:35:18.692Z,53.30
2023-02-01T08:38:20.376Z,55.80
2023-02-01T08:41:24.575Z,57.10
2023-02-01T08:44:26.238Z,57.20
2023-02-01T08:47:27.927Z,58.70
2023-02-01T08:50:29.634Z,55.70
2023-02-01T08:53:31.554Z,62.20
2023-02-01T08:56:33.302Z,59.70
2023-02-01T08:59:34.962Z,65.80
2023-02-01T09:02:37.008Z,55.40
2023-02-01T09:05:49.029Z,58.40
2023-02-01T09:08:51.416Z,51.70
2023-02-01T09:11:53.075Z,54.10
2023-02-01T09:14:55.376Z,56.30
2023-02-01T09:17:57.049Z,57.10
2023-02-01T09:20:58.799Z,54.40
2023-02-01T09:24:00.575Z,47.70
2023-02-01T09:27:02.265Z,53.50
2023-02-01T09:30:05.875Z,55.70
2023-02-01T09:36:26.746Z,51.60
2023-02-01T09:39:31.086Z,50.60
2023-02-01T09:42:51.669Z,56.70
2023-02-01T09:46:14.741Z,58.90
2023-02-01T09:49:21.063Z,52.90
2023-02-01T09:52:29.499Z,53.30
2023-02-01T09:55:36.589Z,55.50
2023-02-01T09:58:42.476Z,58.70
2023-02-01T10:01:44.246Z,57.50
2023-02-01T10:04:46.187Z,65.60
2023-02-01T10:07:59.303Z,60.90
2023-02-01T10:11:49.457Z,69.60
2023-02-01T10:15:15.654Z,62.80
2023-02-01T10:18:36.431Z,69.90
2023-02-01T10:22:01.925Z,65.00
2023-02-01T10:25:24.935Z,60.70
2023-02-01T10:28:27.120Z,67.50
2023-02-01T10:31:34.785Z,64.60
2023-02-01T10:34:37.707Z,70.70
2023-02-01T10:37:42.320Z,67.90
2023-02-01T10:40:44.069Z,67.10
2023-02-01T10:43:48.659Z,69.40
2023-02-01T10:46:51.316Z,69.10
2023-02-01T10:50:10.312Z,60.70
2023-02-01T10:53:18.747Z,69.00
2023-02-01T10:56:29.075Z,65.70
2023-02-01T10:59:33.586Z,64.90
2023-02-01T11:02:36.588Z,62.40
2023-02-01T11:05:46.857Z,68.20
2023-02-01T11:08:51.196Z,65.30
2023-02-01T11:15:04.576Z,67.40
2023-02-01T11:18:17.909Z,61.90
2023-02-01T11:21:19.603Z,65.80
2023-02-01T11:24:23.921Z,65.50
2023-02-01T11:30:38.465Z,72.00
2023-02-01T11:33:48.998Z,72.40
2023-02-01T11:39:58.002Z,70.20
2023-02-01T11:43:38.408Z,68.40
2023-02-01T11:46:40.072Z,57.00
2023-02-01T11:49:41.782Z,66.00
2023-02-01T11:52:52.413Z,52.20
2023-02-01T11:56:29.749Z,63.20
2023-02-01T11:59:56.387Z,58.20
2023-02-01T12:03:24.783Z,58.00
2023-02-01T12:06:35.592Z,50.20
2023-02-01T12:09:53.032Z,60.10
2023-02-01T12:13:03.744Z,58.40
2023-02-01T12:16:11.334Z,61.20
2023-02-01T12:19:22.573Z,55.80
2023-02-01T12:22:50.705Z,59.50
2023-02-01T12:26:23.324Z,61.20
2023-02-01T12:29:53.004Z,57.00
2023-02-01T12:33:09.772Z,63.40
2023-02-01T12:39:33.746Z,66.70
2023-02-01T12:42:42.438Z,62.20
2023-02-01T12:45:48.147Z,61.40
2023-02-01T12:48:55.845Z,64.60
2023-02-01T12:52:05.474Z,56.10
2023-02-01T12:55:35.529Z,63.20
2023-02-01T12:58:42.502Z,66.20
2023-02-01T13:01:51.962Z,55.40
2023-02-01T13:05:02.818Z,53.10
2023-02-01T13:08:08.899Z,53.80
2023-02-01T13:11:19.200Z,55.80
2023-02-01T13:14:33.168Z,63.20
2023-02-01T13:17:35.015Z,58.50
2023-02-01T13:20:43.463Z,59.90
2023-02-01T13:23:47.937Z,55.00
2023-02-01T13:26:49.812Z,56.30
2023-02-01T13:30:17.040Z,64.10
2023-02-01T13:33:52.608Z,55.10
2023-02-01T13:37:26.999Z,63.20
2023-02-01T13:41:07.025Z,60.20
2023-02-01T13:44:25.760Z,58.90
2023-02-01T13:47:33.288Z,37.40
2023-02-01T13:50:38.651Z,63.80
2023-02-01T13:53:46.953Z,58.00
2023-02-01T13:56:48.647Z,53.00
2023-02-01T13:59:51.917Z,63.70
2023-02-01T14:03:09.830Z,64.10
2023-02-01T14:06:27.380Z,56.50
2023-02-01T14:09:35.250Z,55.30
2023-02-01T14:12:45.965Z,62.50
2023-02-01T14:16:03.026Z,66.80
2023-02-01T14:19:10.391Z,65.30
2023-02-01T14:22:21.148Z,67.10
2023-02-01T14:25:23.219Z,70.60
2023-02-01T14:28:28.895Z,67.50
2023-02-01T14:32:00.811Z,65.20
2023-02-01T14:35:04.067Z,60.90
2023-02-01T14:38:08.052Z,56.80
2023-02-01T14:41:23.569Z,59.70
2023-02-01T14:44:31.415Z,61.90
2023-02-01T14:47:34.239Z,57.20
2023-02-01T14:50:41.579Z,65.30
2023-02-01T14:53:44.604Z,71.50
2023-02-01T14:56:47.041Z,69.00
2023-02-01T14:59:50.385Z,62.60
2023-02-01T15:02:53.983Z,67.30
2023-02-01T15:05:58.013Z,67.30
2023-02-01T15:12:12.045Z,64.30
2023-02-01T15:15:13.725Z,63.50
2023-02-01T15:18:19.716Z,67.40
2023-02-01T15:21:29.807Z,64.20
2023-02-01T15:24:32.914Z,68.60
2023-02-01T15:27:34.716Z,64.10
2023-02-01T15:30:37.179Z,61.10
2023-02-01T15:33:38.887Z,70.90
2023-02-01T15:36:45.764Z,67.80
2023-02-01T15:40:10.393Z,69.10
2023-02-01T15:43:13.196Z,68.20
2023-02-01T15:46:18.082Z,78.40
2023-02-01T15:49:20.905Z,71.90
2023-02-01T15:52:28.903Z,70.80
2023-02-01T15:55:43.027Z,64.70
2023-02-01T15:58:51.686Z,68.30
2023-02-01T16:01:53.418Z,61.00
2023-02-01T16:04:55.592Z,66.40
2023-02-01T16:08:05.035Z,63.80
2023-02-01T16:11:10.095Z,63.60
2023-02-01T16:14:11.697Z,70.30
2023-02-01T16:17:13.349Z,66.00
2023-02-01T16:20:15.123Z,62.90
2023-02-01T16:23:16.843Z,66.80
2023-02-01T16:26:19.564Z,65.20
2023-02-01T16:29:22.739Z,63.30
2023-02-01T16:32:24.711Z,65.60
2023-02-01T16:35:28.773Z,67.90
2023-02-01T16:38:30.581Z,62.80
2023-02-01T16:41:32.304Z,63.00
2023-02-01T16:44:33.985Z,59.00
2023-02-01T16:47:38.698Z,62.60
2023-02-01T16:50:40.378Z,58.70
2023-02-01T16:53:53.846Z,63.50
2023-02-01T16:56:56.532Z,62.00
2023-02-01T16:59:59.416Z,65.20
2023-02-01T17:03:01.068Z,65.00
2023-02-01T17:06:02.970Z,58.90
2023-02-01T17:09:05.230Z,61.00
2023-02-01T17:12:07.164Z,70.90
2023-02-01T17:15:11.198Z,71.80
2023-02-01T17:18:16.447Z,68.30
2023-02-01T17:21:18.077Z,68.90
2023-02-01T17:24:25.909Z,69.40
2023-02-01T17:27:30.353Z,60.20
2023-02-01T17:30:32.396Z,66.00
2023-02-01T17:33:38.018Z,67.00
2023-02-01T17:36:42.655Z,62.30
2023-02-01T17:39:56.338Z,66.50
2023-02-01T17:42:58.121Z,64.80
2023-02-01T17:46:04.286Z,61.20
2023-02-01T17:49:06.014Z,70.90
2023-02-01T17:52:11.126Z,70.00
2023-02-01T17:55:22.755Z,70.90
2023-02-01T17:58:24.909Z,68.80
2023-02-01T18:01:27.374Z,71.30
2023-02-01T18:04:29.114Z,71.40
2023-02-01T18:07:30.815Z,63.80
2023-02-01T18:10:32.472Z,65.90
2023-02-01T18:13:34.147Z,65.60
2023-02-01T18:16:37.247Z,63.90
2023-02-01T18:19:39.424Z,65.10
2023-02-01T18:22:41.029Z,64.80
2023-02-01T18:25:42.703Z,67.80
2023-02-01T18:28:45.018Z,66.60
2023-02-01T18:31:49.604Z,71.60
2023-02-01T18:34:51.391Z,69.30
2023-02-01T18:37:54.726Z,63.10
2023-02-01T18:40:58.316Z,67.10
2023-02-01T18:43:59.972Z,63.50
2023-02-01T18:47:01.656Z,58.80
2023-02-01T18:50:03.507Z,70.00
2023-02-01T18:53:08.483Z,71.80
2023-02-01T18:56:13.198Z,73.80
2023-02-01T18:59:17.399Z,73.70
2023-02-01T19:02:19.575Z,71.50
2023-02-01T19:05:22.324Z,72.00
2023-02-01T19:08:25.906Z,67.40
2023-02-01T19:11:27.672Z,60.50
2023-02-01T19:14:29.479Z,62.60
2023-02-01T19:17:31.271Z,61.90
2023-02-01T19:20:33.574Z,59.20
2023-02-01T19:23:35.390Z,60.60
2023-02-01T19:26:37.143Z,54.00
2023-02-01T19:29:40.899Z,57.30
2023-02-01T19:32:42.687Z,54.20
2023-02-01T19:35:44.339Z,66.20
2023-02-01T19:38:46.648Z,69.00
2023-02-01T19:41:48.401Z,68.60
2023-02-01T19:44:50.150Z,76.40
2023-02-01T19:47:51.804Z,57.70
2023-02-01T19:50:55.569Z,57.00
2023-02-01T19:53:57.624Z,64.20
2023-02-01T19:56:59.388Z,61.50
2023-02-01T20:00:01.077Z,60.30
2023-02-01T20:03:05.022Z,73.50
2023-02-01T20:06:07.617Z,61.20
2023-02-01T20:09:09.345Z,61.00
2023-02-01T20:12:11.922Z,65.90
2023-02-01T20:15:13.626Z,69.10
2023-02-01T20:18:15.316Z,62.20
2023-02-01T20:21:18.492Z,67.80
2023-02-01T20:24:20.304Z,57.50
2023-02-01T20:27:23.039Z,69.10
2023-02-01T20:30:24.929Z,68.80
2023-02-01T20:33:27.651Z,69.40
2023-02-01T20:36:30.641Z,67.20
2023-02-01T20:39:32.305Z,61.00
2023-02-01T20:42:34.669Z,70.40
2023-02-01T20:45:40.592Z,62.80
2023-02-01T20:48:44.050Z,64.80
2023-02-01T20:51:45.749Z,69.70
2023-02-01T20:54:47.670Z,73.50
2023-02-01T20:57:49.406Z,71.00
2023-02-01T21:00:51.305Z,58.70
2023-02-01T21:03:53.002Z,61.90
2023-02-01T21:06:55.885Z,59.20
2023-02-01T21:09:57.630Z,58.10
2023-02-01T21:13:05.022Z,52.10
2023-02-01T21:16:08.688Z,53.50
2023-02-01T21:19:10.312Z,59.00
2023-02-01T21:22:13.503Z,57.30
2023-02-01T21:25:15.654Z,44.10
2023-02-01T21:28:17.471Z,52.80
2023-02-01T21:31:22.294Z,50.70
2023-02-01T21:34:24.612Z,53.00
2023-02-01T21:37:27.093Z,44.10
2023-02-01T21:40:28.772Z,56.90
2023-02-01T21:43:30.498Z,56.70
2023-02-01T21:46:32.727Z,77.50
2023-02-01T21:49:35.001Z,53.30
2023-02-01T21:52:39.093Z,57.90
2023-02-01T21:55:41.323Z,54.00
2023-02-01T21:58:43.168Z,55.70
2023-02-01T22:01:45.259Z,66.60
2023-02-01T22:04:49.133Z,76.70
2023-02-01T22:07:50.882Z,56.60
2023-02-01T22:10:53.116Z,58.00
2023-02-01T22:13:55.275Z,64.20
2023-02-01T22:16:57.177Z,74.80
2023-02-01T22:19:58.915Z,75.90
2023-02-01T22:23:00.607Z,70.70
2023-02-01T22:26:06.729Z,55.40
2023-02-01T22:29:09.514Z,48.90
2023-02-01T22:32:13.280Z,59.40
2023-02-01T22:35:15.036Z,46.50
2023-02-01T22:38:17.288Z,47.80
2023-02-01T22:41:19.949Z,43.70
2023-02-01T22:44:21.724Z,45.60
2023-02-01T22:47:23.446Z,41.30
2023-02-01T22:50:25.074Z,47.10
2023-02-01T22:53:27.744Z,50.10
2023-02-01T22:56:36.775Z,58.30
2023-02-01T22:59:38.471Z,53.80
2023-02-01T23:02:43.625Z,55.10
2023-02-01T23:05:45.302Z,55.90
2023-02-01T23:08:46.979Z,61.40
2023-02-01T23:11:49.129Z,63.20
2023-02-01T23:15:06.349Z,60.00
2023-02-01T23:18:07.990Z,67.40
2023-02-01T23:21:12.689Z,55.00
2023-02-01T23:24:14.378Z,53.70
2023-02-01T23:27:16.060Z,62.10
2023-02-01T23:30:17.813Z,57.80
2023-02-01T23:33:23.056Z,48.90
2023-02-01T23:36:26.053Z,51.20
2023-02-01T23:39:27.836Z,46.80
2023-02-01T23:42:29.447Z,40.00
2023-02-01T23:45:31.089Z,49.70
2023-02-01T23:48:32.848Z,47.70
2023-02-01T23:51:34.708Z,49.50
2023-02-01T23:54:36.342Z,41.50
2023-02-01T23:57:38.152Z,41.20
